Flight Track Log - Related Links

Times and Time Zones

All times are in EDT time to prevent confusion due to time zone crossing. See the SWA1181 flight status page for this flight to view local times or setup timezone preferences in your user account.

Time Position Orientation Groundspeed Altitude Reporting Facility
EDT Latitude Longitude Course Direction KTS MPH feet Rate Location/Type
Sat 04:59:33 PM 42.9333 -78.7500 180° South 143 165 1,800  Level Buffalo TRACON
Sat 04:59:51 PM 42.9167 -78.7500 180° South 144 166 2,300 2,256 Climbing Buffalo TRACON
Sat 05:01:46 PM 42.8158 -78.8311 211° Southwest 252 290 6,800 2,674 Climbing Cleveland Center
Sat 05:02:46 PM 42.7475 -78.8586 196° South 266 306 10,100 2,500 Climbing Cleveland Center
Sat 05:03:46 PM 42.6667 -78.8975 199° South 279 321 11,800 2,500 Climbing Cleveland Center
Sat 05:04:46 PM 42.5736 -78.9422 199° South 322 371 15,100 3,150 Climbing Cleveland Center
Sat 05:05:46 PM 42.4806 -78.9869 200° South 348 400 18,100 3,300 Climbing Cleveland Center
Sat 05:06:46 PM 42.3769 -79.0317 198° South 361 415 21,700 3,400 Climbing Cleveland Center
Sat 05:07:46 PM 42.2928 -78.9806 156° South 339 390 24,900 2,400 Climbing Cleveland Center
Sat 05:08:46 PM 42.1931 -78.9969 187° South 339 390 26,500 1,850 Climbing Cleveland Center
Sat 05:09:46 PM 42.1122 -79.0408 202° Southwest 339 390 28,600 1,800 Climbing Cleveland Center
Sat 05:10:46 PM 42.0167 -79.0739 194° South 344 396 30,100 1,450 Climbing Cleveland Center
Sat 05:11:46 PM 41.9386 -79.1456 214° Southwest 349 402 31,500 1,200 Climbing Cleveland Center
Sat 05:12:46 PM 41.9067 -79.2803 252° West 327 376 32,500 1,000 Climbing Cleveland Center
Sat 05:13:46 PM 41.8936 -79.4283 263° West 342 394 33,500 850 Climbing Cleveland Center
Sat 05:14:46 PM 41.8658 -79.5711 255° West 379 436 34,200 1,100 Climbing Cleveland Center
Sat 05:15:46 PM 41.8378 -79.7164 256° West 394 453 35,700 900 Climbing Cleveland Center
Sat 05:16:46 PM 41.8139 -79.8561 257° West 399 459 36,000 150 Climbing Cleveland Center
Sat 05:17:46 PM 41.7875 -79.9956 256° West 391 450 36,000  Level Cleveland Center
Sat 05:18:46 PM 41.7611 -80.1322 256° West 391 450 36,000  Level Cleveland Center
Sat 05:19:46 PM 41.7344 -80.2714 256° West 391 450 36,000  Level Cleveland Center
Sat 05:20:46 PM 41.7097 -80.4053 256° West 391 450 36,000  Level Cleveland Center
Sat 05:21:46 PM 41.6806 -80.5442 254° West 391 450 36,000  Level Cleveland Center
Sat 05:22:46 PM 41.6578 -80.6806 257° West 385 443 36,000  Level Cleveland Center
Sat 05:23:46 PM 41.6303 -80.8164 255° West 380 437 36,000  Level Cleveland Center
Sat 05:24:46 PM 41.6028 -80.9553 255° West 380 437 36,000  Level Cleveland Center
Sat 05:25:46 PM 41.5775 -81.0772 255° West 380 437 36,000  Level Cleveland Center
Sat 05:26:46 PM 41.5517 -81.2131 256° West 380 437 36,000  Level Cleveland Center
Sat 05:27:46 PM 41.5239 -81.3486 255° West 380 437 36,000  Level Cleveland Center
Sat 05:28:46 PM 41.5000 -81.4786 256° West 371 427 36,000  Level Cleveland Center
Sat 05:29:46 PM 41.4428 -81.5914 236° Southwest 363 418 36,000  Level Cleveland Center
Sat 05:30:46 PM 41.3814 -81.6928 231° Southwest 366 421 36,000  Level Cleveland Center
Sat 05:31:46 PM 41.3178 -81.7942 230° Southwest 366 421 36,000  Level Cleveland Center
Sat 05:32:46 PM 41.2519 -81.9033 231° Southwest 371 427 36,000  Level Cleveland Center
Sat 05:33:46 PM 41.1861 -82.0039 229° Southwest 371 427 36,000  Level Cleveland Center
Sat 05:34:46 PM 41.1572 -82.1303 253° West 356 410 36,000  Level Cleveland Center
Sat 05:35:46 PM 41.1803 -82.2689 283° West 362 417 36,000  Level Cleveland Center
Sat 05:36:46 PM 41.1992 -82.4044 281° West 372 428 36,000  Level Cleveland Center
Sat 05:37:46 PM 41.2178 -82.5431 280° West 377 434 36,000  Level Cleveland Center
Sat 05:38:46 PM 41.2361 -82.6789 280° West 377 434 36,000  Level Cleveland Center
Sat 05:39:46 PM 41.2561 -82.8286 280° West 372 428 36,000  Level Cleveland Center
Sat 05:40:46 PM 41.2744 -82.9647 280° West 372 428 36,000  Level Cleveland Center
Sat 05:41:46 PM 41.2903 -83.1008 279° West 372 428 36,000  Level Cleveland Center
Sat 05:42:46 PM 41.3081 -83.2342 280° West 372 428 36,000  Level Cleveland Center
Sat 05:43:46 PM 41.3236 -83.3675 279° West 372 428 36,000  Level Cleveland Center
Sat 05:44:46 PM 41.3411 -83.5039 280° West 372 428 36,000  Level Cleveland Center
Sat 05:45:46 PM 41.3547 -83.6206 279° West 372 428 36,000  Level Cleveland Center
Sat 05:46:46 PM 41.3719 -83.7542 280° West 372 428 36,000  Level Cleveland Center
Sat 05:48:46 PM 41.4075 -84.0242 280° West 357 411 36,000  Level Chicago Center
Sat 05:49:47 PM 41.4231 -84.1564 279° West 361 415 36,000 -341 Level Chicago Center
Sat 05:50:49 PM 41.4386 -84.2914 279° West 368 423 35,300 -1,317 Descending Chicago Center
Sat 05:51:50 PM 41.4539 -84.4217 279° West 360 414 33,300 -1,902 Descending Chicago Center
Sat 05:52:52 PM 41.4694 -84.5472 279° West 347 399 31,400 -1,610 Descending Chicago Center
Sat 05:53:53 PM 41.4819 -84.6667 278° West 330 380 30,000 -683 Descending Chicago Center
Sat 05:54:55 PM 41.4856 -84.7886 272° West 328 377 30,000 -390 Level Chicago Center
Sat 05:55:56 PM 41.4928 -84.9519 273° West 365 420 29,200 -878 Descending Chicago Center
Sat 05:56:58 PM 41.4975 -85.0939 273° West 380 437 28,200 -585 Descending Chicago Center
Sat 05:57:59 PM 41.5014 -85.2344 272° West 379 436 28,000 -244 Descending Chicago Center
Sat 05:59:01 PM 41.5058 -85.3775 272° West 379 436 27,700 -585 Descending Chicago Center
Sat 06:00:02 PM 41.5106 -85.5253 272° West 388 447 26,800 -1,366 Descending Chicago Center
Sat 06:01:04 PM 41.5147 -85.6717 272° West 389 448 24,900 -1,935 Descending Chicago Center
Sat 06:02:06 PM 41.5189 -85.8156 272° West 387 445 22,800 -1,512 Descending Chicago Center
Sat 06:03:07 PM 41.5225 -85.9447 272° West 346 398 21,800 -1,171 Descending Chicago Center
Sat 06:04:09 PM 41.5247 -86.0531 272° West 296 341 20,400 -1,707 Descending Chicago Center
Sat 06:05:10 PM 41.5242 -86.1503 270° West 266 306 18,300 -2,146 Descending Chicago Center
Sat 06:06:12 PM 41.5239 -86.2486 270° West 265 305 16,000 -2,146 Descending Chicago Center
Sat 06:07:13 PM 41.5236 -86.3433 270° West 258 297 13,900 -2,213 Descending Chicago Center
Sat 06:08:14 PM 41.5225 -86.4558 269° West 254 292 11,500 -2,000 Descending Chicago Center
Sat 06:09:16 PM 41.5203 -86.5472 268° West 247 284 9,800 -1,463 Descending Chicago Center
Sat 06:10:17 PM 41.4644 -86.6086 219° Southwest 258 297 8,500 -1,122 Descending Chicago Center
Sat 06:11:19 PM 41.4275 -86.6806 236° Southwest 242 278 7,500 -976 Descending Chicago Center
Sat 06:12:20 PM 41.4392 -86.7742 279° West 239 275 6,500 -732 Descending Chicago Center
Sat 06:13:22 PM 41.4564 -86.8586 285° West 239 275 6,000 -244 Descending Chicago Center
Sat 06:14:23 PM 41.4731 -86.9425 285° West 237 273 6,000  Level Chicago Center
Sat 06:15:25 PM 41.4897 -87.0269 285° West 237 273 6,000  Level Chicago Center
Sat 06:16:26 PM 41.5072 -87.1111 286° West 237 273 6,000  Level Chicago Center
Sat 06:16:50 PM 41.5167 -87.1500 288° West 206 237 6,000  Level Chicago TRACON
Sat 06:17:50 PM 41.5167 -87.2333 270° West 201 231 6,000 -50 Level Chicago TRACON
Sat 06:18:50 PM 41.4833 -87.2833 228° Southwest 184 212 5,900 -200 Descending Chicago TRACON
Sat 06:19:50 PM 41.5000 -87.3500 288° West 168 193 5,600 -471 Descending Chicago TRACON
Sat 06:20:32 PM 41.5117 -87.3792 298° West 167 192 5,100 -641 Descending Chicago Center
Sat 06:21:33 PM 41.5347 -87.4350 299° West 172 198 4,500 -537 Descending Chicago Center
Sat 06:22:35 PM 41.5664 -87.4792 314° West 176 203 4,000 -244 Descending Chicago Center
Sat 06:23:36 PM 41.6061 -87.5064 333° Northwest 169 194 4,000  Level Chicago Center
Sat 06:24:38 PM 41.6472 -87.5558 318° Northwest 167 192 4,000 -195 Level Chicago Center
Sat 06:25:39 PM 41.6775 -87.6014 312° West 166 191 3,600 -720 Descending Chicago Center
Sat 06:27:00 PM 41.7701 -87.7303 340° North  Level Estimated
Sat 06:27:33 PM 41.7333 -87.6833 340° North 145 167 1,900  Level Chicago TRACON
Sat 06:28:33 PM 41.7667 -87.7167 323° Northwest 126 145 1,200 -700 Descending Chicago TRACON
Sat 06:31:00 PM 41.7833 -87.7500 North  Level FlightAware Approximate

Login

Don't have an account? Register now (free) for customized features, flight alerts, and more!